sensor_id;sensor_type;location;lat;lon;timestamp;temperature;humidity
46720;DHT22;32452;51.382;-0.002;2023-02-02T00:01:11;9.10;94.50
46720;DHT22;32452;51.382;-0.002;2023-02-02T00:03:57;9.10;94.40
46720;DHT22;32452;51.382;-0.002;2023-02-02T00:06:43;9.20;94.50
46720;DHT22;32452;51.382;-0.002;2023-02-02T00:09:30;9.10;94.50
46720;DHT22;32452;51.382;-0.002;2023-02-02T00:12:16;9.10;94.50
46720;DHT22;32452;51.382;-0.002;2023-02-02T00:15:02;9.10;94.50
46720;DHT22;32452;51.382;-0.002;2023-02-02T00:17:47;9.20;94.60
46720;DHT22;32452;51.382;-0.002;2023-02-02T00:20:33;9.10;94.50
46720;DHT22;32452;51.382;-0.002;2023-02-02T00:23:21;9.10;94.50
46720;DHT22;32452;51.382;-0.002;2023-02-02T00:26:06;9.20;94.60
46720;DHT22;32452;51.382;-0.002;2023-02-02T00:28:51;9.10;94.50
46720;DHT22;32452;51.382;-0.002;2023-02-02T00:31:37;9.10;94.60
46720;DHT22;32452;51.382;-0.002;2023-02-02T00:34:23;9.20;94.60
46720;DHT22;32452;51.382;-0.002;2023-02-02T00:37:08;9.10;94.60
46720;DHT22;32452;51.382;-0.002;2023-02-02T00:39:54;9.10;94.70
46720;DHT22;32452;51.382;-0.002;2023-02-02T00:42:40;9.10;94.80
46720;DHT22;32452;51.382;-0.002;2023-02-02T00:45:25;9.10;94.80
46720;DHT22;32452;51.382;-0.002;2023-02-02T00:48:11;9.10;94.80
46720;DHT22;32452;51.382;-0.002;2023-02-02T00:50:57;9.10;94.80
46720;DHT22;32452;51.382;-0.002;2023-02-02T00:53:42;9.10;94.80
46720;DHT22;32452;51.382;-0.002;2023-02-02T00:56:27;9.10;94.80
46720;DHT22;32452;51.382;-0.002;2023-02-02T00:59:13;9.10;94.80
46720;DHT22;32452;51.382;-0.002;2023-02-02T01:01:58;9.10;94.80
46720;DHT22;32452;51.382;-0.002;2023-02-02T01:04:44;9.10;94.80
46720;DHT22;32452;51.382;-0.002;2023-02-02T01:07:30;9.20;94.80
46720;DHT22;32452;51.382;-0.002;2023-02-02T01:10:17;9.10;94.80
46720;DHT22;32452;51.382;-0.002;2023-02-02T01:13:03;9.10;94.80
46720;DHT22;32452;51.382;-0.002;2023-02-02T01:15:48;9.10;94.70
46720;DHT22;32452;51.382;-0.002;2023-02-02T01:18:34;9.10;94.60
46720;DHT22;32452;51.382;-0.002;2023-02-02T01:21:19;9.10;94.60
46720;DHT22;32452;51.382;-0.002;2023-02-02T01:24:05;9.20;94.50
46720;DHT22;32452;51.382;-0.002;2023-02-02T01:26:51;9.20;94.50
46720;DHT22;32452;51.382;-0.002;2023-02-02T01:29:36;9.20;94.40
46720;DHT22;32452;51.382;-0.002;2023-02-02T01:32:22;9.20;94.30
46720;DHT22;32452;51.382;-0.002;2023-02-02T01:35:07;9.20;94.20
46720;DHT22;32452;51.382;-0.002;2023-02-02T01:37:54;9.20;94.20
46720;DHT22;32452;51.382;-0.002;2023-02-02T01:40:54;9.20;94.10
46720;DHT22;32452;51.382;-0.002;2023-02-02T01:46:31;9.20;94.00
46720;DHT22;32452;51.382;-0.002;2023-02-02T01:49:18;9.20;93.90
46720;DHT22;32452;51.382;-0.002;2023-02-02T01:52:05;9.20;93.90
46720;DHT22;32452;51.382;-0.002;2023-02-02T01:55:05;9.10;93.90
46720;DHT22;32452;51.382;-0.002;2023-02-02T01:58:14;9.10;93.90
46720;DHT22;32452;51.382;-0.002;2023-02-02T02:01:01;9.00;93.90
46720;DHT22;32452;51.382;-0.002;2023-02-02T02:03:47;8.90;94.10
46720;DHT22;32452;51.382;-0.002;2023-02-02T02:06:32;8.90;94.30
46720;DHT22;32452;51.382;-0.002;2023-02-02T02:09:18;8.80;94.40
46720;DHT22;32452;51.382;-0.002;2023-02-02T02:12:10;8.80;94.60
46720;DHT22;32452;51.382;-0.002;2023-02-02T02:14:58;8.70;94.80
46720;DHT22;32452;51.382;-0.002;2023-02-02T02:24:27;8.70;95.40
46720;DHT22;32452;51.382;-0.002;2023-02-02T02:34:20;8.70;95.70
46720;DHT22;32452;51.382;-0.002;2023-02-02T02:37:44;8.70;95.90
46720;DHT22;32452;51.382;-0.002;2023-02-02T02:40:35;8.70;96.00
46720;DHT22;32452;51.382;-0.002;2023-02-02T02:43:31;8.70;96.10
46720;DHT22;32452;51.382;-0.002;2023-02-02T02:46:19;8.80;96.10
46720;DHT22;32452;51.382;-0.002;2023-02-02T02:49:08;8.80;96.20
46720;DHT22;32452;51.382;-0.002;2023-02-02T02:51:55;8.80;96.30
46720;DHT22;32452;51.382;-0.002;2023-02-02T02:54:50;8.80;96.40
46720;DHT22;32452;51.382;-0.002;2023-02-02T03:01:20;8.90;96.50
46720;DHT22;32452;51.382;-0.002;2023-02-02T03:04:17;8.90;96.50
46720;DHT22;32452;51.382;-0.002;2023-02-02T03:07:09;8.80;96.60
46720;DHT22;32452;51.382;-0.002;2023-02-02T03:09:59;8.80;96.70
46720;DHT22;32452;51.382;-0.002;2023-02-02T03:12:47;8.80;96.80
46720;DHT22;32452;51.382;-0.002;2023-02-02T03:15:33;8.80;96.90
46720;DHT22;32452;51.382;-0.002;2023-02-02T03:18:21;8.80;97.00
46720;DHT22;32452;51.382;-0.002;2023-02-02T03:21:07;8.70;97.20
46720;DHT22;32452;51.382;-0.002;2023-02-02T03:23:52;8.70;97.20
46720;DHT22;32452;51.382;-0.002;2023-02-02T03:26:38;8.70;97.20
46720;DHT22;32452;51.382;-0.002;2023-02-02T03:29:23;8.60;97.20
46720;DHT22;32452;51.382;-0.002;2023-02-02T03:32:09;8.50;97.30
46720;DHT22;32452;51.382;-0.002;2023-02-02T03:34:55;8.50;97.30
46720;DHT22;32452;51.382;-0.002;2023-02-02T03:37:40;8.40;97.50
46720;DHT22;32452;51.382;-0.002;2023-02-02T03:40:27;8.30;97.50
46720;DHT22;32452;51.382;-0.002;2023-02-02T03:43:18;8.20;97.80
46720;DHT22;32452;51.382;-0.002;2023-02-02T03:46:04;8.20;97.90
46720;DHT22;32452;51.382;-0.002;2023-02-02T03:48:50;8.10;98.00
46720;DHT22;32452;51.382;-0.002;2023-02-02T03:51:35;8.10;98.10
46720;DHT22;32452;51.382;-0.002;2023-02-02T03:54:21;8.00;98.20
46720;DHT22;32452;51.382;-0.002;2023-02-02T03:57:07;8.00;98.40
46720;DHT22;32452;51.382;-0.002;2023-02-02T03:59:52;7.90;98.50
46720;DHT22;32452;51.382;-0.002;2023-02-02T04:02:38;7.90;98.60
46720;DHT22;32452;51.382;-0.002;2023-02-02T04:05:24;7.90;98.70
46720;DHT22;32452;51.382;-0.002;2023-02-02T04:08:10;7.80;98.80
46720;DHT22;32452;51.382;-0.002;2023-02-02T04:10:56;7.80;98.90
46720;DHT22;32452;51.382;-0.002;2023-02-02T04:13:41;7.80;98.90
46720;DHT22;32452;51.382;-0.002;2023-02-02T04:16:29;7.70;99.00
46720;DHT22;32452;51.382;-0.002;2023-02-02T04:19:19;7.70;99.20
46720;DHT22;32452;51.382;-0.002;2023-02-02T04:22:04;7.70;99.20
46720;DHT22;32452;51.382;-0.002;2023-02-02T04:24:50;7.60;99.30
46720;DHT22;32452;51.382;-0.002;2023-02-02T04:27:35;7.60;99.40
46720;DHT22;32452;51.382;-0.002;2023-02-02T04:30:21;7.60;99.70
46720;DHT22;32452;51.382;-0.002;2023-02-02T04:33:06;7.60;99.90
46720;DHT22;32452;51.382;-0.002;2023-02-02T04:35:52;7.60;99.90
46720;DHT22;32452;51.382;-0.002;2023-02-02T04:38:38;7.60;99.90
46720;DHT22;32452;51.382;-0.002;2023-02-02T04:41:23;7.60;99.90
46720;DHT22;32452;51.382;-0.002;2023-02-02T04:44:15;7.60;99.90
46720;DHT22;32452;51.382;-0.002;2023-02-02T04:47:01;7.60;99.90
46720;DHT22;32452;51.382;-0.002;2023-02-02T04:49:46;7.50;99.90
46720;DHT22;32452;51.382;-0.002;2023-02-02T04:52:32;7.50;99.90
46720;DHT22;32452;51.382;-0.002;2023-02-02T04:55:17;7.50;99.90
46720;DHT22;32452;51.382;-0.002;2023-02-02T04:58:03;7.50;99.90
46720;DHT22;32452;51.382;-0.002;2023-02-02T05:00:49;7.50;99.90
46720;DHT22;32452;51.382;-0.002;2023-02-02T05:03:35;7.50;99.90
46720;DHT22;32452;51.382;-0.002;2023-02-02T05:06:23;7.40;99.90
46720;DHT22;32452;51.382;-0.002;2023-02-02T05:09:17;7.40;99.90
46720;DHT22;32452;51.382;-0.002;2023-02-02T05:12:03;7.30;99.90
46720;DHT22;32452;51.382;-0.002;2023-02-02T05:14:49;7.30;99.90
46720;DHT22;32452;51.382;-0.002;2023-02-02T05:17:34;7.30;99.90
46720;DHT22;32452;51.382;-0.002;2023-02-02T05:20:19;7.30;99.90
46720;DHT22;32452;51.382;-0.002;2023-02-02T05:23:05;7.30;99.90
46720;DHT22;32452;51.382;-0.002;2023-02-02T05:25:52;7.30;99.90
46720;DHT22;32452;51.382;-0.002;2023-02-02T05:28:38;7.20;99.90
46720;DHT22;32452;51.382;-0.002;2023-02-02T05:31:23;7.20;99.90
46720;DHT22;32452;51.382;-0.002;2023-02-02T05:34:09;7.20;99.90
46720;DHT22;32452;51.382;-0.002;2023-02-02T05:36:55;7.10;99.90
46720;DHT22;32452;51.382;-0.002;2023-02-02T05:39:41;7.10;99.90
46720;DHT22;32452;51.382;-0.002;2023-02-02T05:42:27;7.10;99.90
46720;DHT22;32452;51.382;-0.002;2023-02-02T05:45:13;7.10;99.90
46720;DHT22;32452;51.382;-0.002;2023-02-02T05:47:59;7.10;99.90
46720;DHT22;32452;51.382;-0.002;2023-02-02T05:50:47;7.10;99.90
46720;DHT22;32452;51.382;-0.002;2023-02-02T05:53:34;7.10;99.90
46720;DHT22;32452;51.382;-0.002;2023-02-02T05:56:20;7.10;99.90
46720;DHT22;32452;51.382;-0.002;2023-02-02T05:59:05;7.10;99.90
46720;DHT22;32452;51.382;-0.002;2023-02-02T06:01:51;7.10;99.90
46720;DHT22;32452;51.382;-0.002;2023-02-02T06:04:37;7.00;99.90
46720;DHT22;32452;51.382;-0.002;2023-02-02T06:07:23;7.00;99.90
46720;DHT22;32452;51.382;-0.002;2023-02-02T06:10:09;7.00;99.90
46720;DHT22;32452;51.382;-0.002;2023-02-02T06:12:54;7.00;99.90
46720;DHT22;32452;51.382;-0.002;2023-02-02T06:15:40;7.00;99.90
46720;DHT22;32452;51.382;-0.002;2023-02-02T06:18:27;6.90;99.90
46720;DHT22;32452;51.382;-0.002;2023-02-02T06:21:13;6.90;99.90
46720;DHT22;32452;51.382;-0.002;2023-02-02T06:23:58;6.90;99.90
46720;DHT22;32452;51.382;-0.002;2023-02-02T06:26:44;6.90;99.90
46720;DHT22;32452;51.382;-0.002;2023-02-02T06:29:30;6.90;99.90
46720;DHT22;32452;51.382;-0.002;2023-02-02T06:32:16;6.90;99.90
46720;DHT22;32452;51.382;-0.002;2023-02-02T06:35:01;6.90;99.90
46720;DHT22;32452;51.382;-0.002;2023-02-02T06:37:47;6.90;99.90
46720;DHT22;32452;51.382;-0.002;2023-02-02T06:40:33;6.90;99.90
46720;DHT22;32452;51.382;-0.002;2023-02-02T06:43:19;6.90;99.90
46720;DHT22;32452;51.382;-0.002;2023-02-02T06:46:05;6.90;99.90
46720;DHT22;32452;51.382;-0.002;2023-02-02T06:48:50;6.90;99.90
46720;DHT22;32452;51.382;-0.002;2023-02-02T06:51:36;6.90;99.90
46720;DHT22;32452;51.382;-0.002;2023-02-02T06:54:21;6.90;99.90
46720;DHT22;32452;51.382;-0.002;2023-02-02T06:57:07;6.90;99.90
46720;DHT22;32452;51.382;-0.002;2023-02-02T06:59:54;6.80;99.90
46720;DHT22;32452;51.382;-0.002;2023-02-02T07:02:44;6.80;99.90
46720;DHT22;32452;51.382;-0.002;2023-02-02T07:05:30;6.80;99.90
46720;DHT22;32452;51.382;-0.002;2023-02-02T07:08:16;6.90;99.90
46720;DHT22;32452;51.382;-0.002;2023-02-02T07:11:01;6.80;99.90
46720;DHT22;32452;51.382;-0.002;2023-02-02T07:14:00;6.90;99.90
46720;DHT22;32452;51.382;-0.002;2023-02-02T07:16:46;6.90;99.90
46720;DHT22;32452;51.382;-0.002;2023-02-02T07:19:31;6.90;99.90
46720;DHT22;32452;51.382;-0.002;2023-02-02T07:22:17;6.90;99.90
46720;DHT22;32452;51.382;-0.002;2023-02-02T07:25:03;6.90;99.90
46720;DHT22;32452;51.382;-0.002;2023-02-02T07:27:55;6.90;99.90
46720;DHT22;32452;51.382;-0.002;2023-02-02T07:30:41;6.90;99.90
46720;DHT22;32452;51.382;-0.002;2023-02-02T07:33:29;6.90;99.90
46720;DHT22;32452;51.382;-0.002;2023-02-02T07:36:16;6.90;99.90
46720;DHT22;32452;51.382;-0.002;2023-02-02T07:39:03;6.90;99.90
46720;DHT22;32452;51.382;-0.002;2023-02-02T07:41:49;7.00;99.90
46720;DHT22;32452;51.382;-0.002;2023-02-02T07:44:35;7.00;99.90
46720;DHT22;32452;51.382;-0.002;2023-02-02T07:47:20;7.00;99.90
46720;DHT22;32452;51.382;-0.002;2023-02-02T07:50:06;7.00;99.90
46720;DHT22;32452;51.382;-0.002;2023-02-02T07:52:52;7.10;99.90
46720;DHT22;32452;51.382;-0.002;2023-02-02T07:55:38;7.10;99.90
46720;DHT22;32452;51.382;-0.002;2023-02-02T07:58:23;7.20;99.90
46720;DHT22;32452;51.382;-0.002;2023-02-02T08:01:11;7.20;99.90
46720;DHT22;32452;51.382;-0.002;2023-02-02T08:03:58;7.20;99.90
46720;DHT22;32452;51.382;-0.002;2023-02-02T08:06:47;7.30;99.90
46720;DHT22;32452;51.382;-0.002;2023-02-02T08:09:33;7.30;99.90
46720;DHT22;32452;51.382;-0.002;2023-02-02T08:12:19;7.30;99.90
46720;DHT22;32452;51.382;-0.002;2023-02-02T08:15:10;7.40;99.90
46720;DHT22;32452;51.382;-0.002;2023-02-02T08:17:57;7.40;99.90
46720;DHT22;32452;51.382;-0.002;2023-02-02T08:21:00;7.50;99.90
46720;DHT22;32452;51.382;-0.002;2023-02-02T08:24:02;7.60;99.90
46720;DHT22;32452;51.382;-0.002;2023-02-02T08:26:49;7.60;99.90
46720;DHT22;32452;51.382;-0.002;2023-02-02T08:29:38;7.70;99.90
46720;DHT22;32452;51.382;-0.002;2023-02-02T08:32:23;7.70;99.90
46720;DHT22;32452;51.382;-0.002;2023-02-02T08:35:09;7.70;99.90
46720;DHT22;32452;51.382;-0.002;2023-02-02T08:37:54;7.80;99.90
46720;DHT22;32452;51.382;-0.002;2023-02-02T08:40:40;7.80;99.90
46720;DHT22;32452;51.382;-0.002;2023-02-02T08:43:28;7.90;99.90
46720;DHT22;32452;51.382;-0.002;2023-02-02T08:46:26;7.90;99.90
46720;DHT22;32452;51.382;-0.002;2023-02-02T08:49:19;8.00;99.90
46720;DHT22;32452;51.382;-0.002;2023-02-02T08:52:05;8.00;99.90
46720;DHT22;32452;51.382;-0.002;2023-02-02T08:54:50;8.10;99.90
46720;DHT22;32452;51.382;-0.002;2023-02-02T08:57:36;8.10;99.90
46720;DHT22;32452;51.382;-0.002;2023-02-02T09:00:22;8.20;99.90
46720;DHT22;32452;51.382;-0.002;2023-02-02T09:03:07;8.20;99.90
46720;DHT22;32452;51.382;-0.002;2023-02-02T09:05:53;8.30;99.90
46720;DHT22;32452;51.382;-0.002;2023-02-02T09:08:39;8.40;99.90
46720;DHT22;32452;51.382;-0.002;2023-02-02T09:11:25;8.50;99.90
46720;DHT22;32452;51.382;-0.002;2023-02-02T09:14:12;8.50;99.90
46720;DHT22;32452;51.382;-0.002;2023-02-02T09:16:58;8.60;99.90
46720;DHT22;32452;51.382;-0.002;2023-02-02T09:19:44;8.70;99.90
46720;DHT22;32452;51.382;-0.002;2023-02-02T09:22:48;8.70;99.90
46720;DHT22;32452;51.382;-0.002;2023-02-02T09:25:33;8.80;99.90
46720;DHT22;32452;51.382;-0.002;2023-02-02T09:28:19;8.90;99.90
46720;DHT22;32452;51.382;-0.002;2023-02-02T09:31:05;9.20;99.90
46720;DHT22;32452;51.382;-0.002;2023-02-02T09:33:51;9.70;99.90
46720;DHT22;32452;51.382;-0.002;2023-02-02T09:36:37;10.50;99.90
46720;DHT22;32452;51.382;-0.002;2023-02-02T09:39:24;11.10;99.90
46720;DHT22;32452;51.382;-0.002;2023-02-02T09:42:23;11.80;99.90
46720;DHT22;32452;51.382;-0.002;2023-02-02T09:48:31;13.00;96.90
46720;DHT22;32452;51.382;-0.002;2023-02-02T09:51:21;13.50;94.50
46720;DHT22;32452;51.382;-0.002;2023-02-02T09:54:21;13.80;93.20
46720;DHT22;32452;51.382;-0.002;2023-02-02T09:57:14;14.30;91.60
46720;DHT22;32452;51.382;-0.002;2023-02-02T10:00:03;14.60;89.40
46720;DHT22;32452;51.382;-0.002;2023-02-02T10:02:54;14.80;87.30
46720;DHT22;32452;51.382;-0.002;2023-02-02T10:06:05;15.10;85.70
46720;DHT22;32452;51.382;-0.002;2023-02-02T10:09:02;15.40;82.80
46720;DHT22;32452;51.382;-0.002;2023-02-02T10:21:00;15.70;77.20
46720;DHT22;32452;51.382;-0.002;2023-02-02T10:23:46;15.70;76.80
46720;DHT22;32452;51.382;-0.002;2023-02-02T10:26:36;15.80;76.40
46720;DHT22;32452;51.382;-0.002;2023-02-02T10:32:19;15.50;75.10
46720;DHT22;32452;51.382;-0.002;2023-02-02T10:38:32;15.30;75.70
46720;DHT22;32452;51.382;-0.002;2023-02-02T10:44:23;14.80;76.50
46720;DHT22;32452;51.382;-0.002;2023-02-02T10:47:37;14.50;76.90
46720;DHT22;32452;51.382;-0.002;2023-02-02T10:50:22;14.40;77.80
46720;DHT22;32452;51.382;-0.002;2023-02-02T10:53:12;14.20;78.10
46720;DHT22;32452;51.382;-0.002;2023-02-02T10:56:09;13.90;78.90
46720;DHT22;32452;51.382;-0.002;2023-02-02T11:01:46;13.70;81.10
46720;DHT22;32452;51.382;-0.002;2023-02-02T11:04:32;13.60;81.50
46720;DHT22;32452;51.382;-0.002;2023-02-02T11:07:37;13.50;81.80
46720;DHT22;32452;51.382;-0.002;2023-02-02T11:10:23;13.40;82.60
46720;DHT22;32452;51.382;-0.002;2023-02-02T11:13:15;13.40;83.70
46720;DHT22;32452;51.382;-0.002;2023-02-02T11:18:59;14.50;82.30
46720;DHT22;32452;51.382;-0.002;2023-02-02T11:21:49;14.50;80.70
46720;DHT22;32452;51.382;-0.002;2023-02-02T11:24:44;14.50;80.30
46720;DHT22;32452;51.382;-0.002;2023-02-02T11:27:33;14.80;80.30
46720;DHT22;32452;51.382;-0.002;2023-02-02T11:30:33;15.00;79.40
46720;DHT22;32452;51.382;-0.002;2023-02-02T11:36:18;15.60;77.20
46720;DHT22;32452;51.382;-0.002;2023-02-02T11:39:14;15.90;75.90
46720;DHT22;32452;51.382;-0.002;2023-02-02T11:42:03;16.00;74.40
46720;DHT22;32452;51.382;-0.002;2023-02-02T11:44:57;16.00;74.10
46720;DHT22;32452;51.382;-0.002;2023-02-02T11:47:44;15.90;73.60
46720;DHT22;32452;51.382;-0.002;2023-02-02T11:50:31;15.60;73.30
46720;DHT22;32452;51.382;-0.002;2023-02-02T11:56:23;14.60;75.60
46720;DHT22;32452;51.382;-0.002;2023-02-02T11:59:35;14.10;77.00
46720;DHT22;32452;51.382;-0.002;2023-02-02T12:02:22;13.70;78.80
46720;DHT22;32452;51.382;-0.002;2023-02-02T12:08:00;13.30;81.40
46720;DHT22;32452;51.382;-0.002;2023-02-02T12:11:04;13.40;82.70
46720;DHT22;32452;51.382;-0.002;2023-02-02T12:26:31;13.20;83.50
46720;DHT22;32452;51.382;-0.002;2023-02-02T12:35:47;12.60;85.40
46720;DHT22;32452;51.382;-0.002;2023-02-02T12:44:59;12.40;88.40
46720;DHT22;32452;51.382;-0.002;2023-02-02T12:48:18;12.40;89.10
46720;DHT22;32452;51.382;-0.002;2023-02-02T12:57:36;12.40;90.00
46720;DHT22;32452;51.382;-0.002;2023-02-02T13:00:51;12.40;90.10
46720;DHT22;32452;51.382;-0.002;2023-02-02T13:10:25;12.40;90.50
46720;DHT22;32452;51.382;-0.002;2023-02-02T13:13:16;12.40;90.70
46720;DHT22;32452;51.382;-0.002;2023-02-02T13:16:10;12.40;90.90
46720;DHT22;32452;51.382;-0.002;2023-02-02T13:19:06;12.40;91.00
46720;DHT22;32452;51.382;-0.002;2023-02-02T13:21:57;12.40;91.00
46720;DHT22;32452;51.382;-0.002;2023-02-02T13:24:51;12.40;91.20
46720;DHT22;32452;51.382;-0.002;2023-02-02T13:27:39;12.30;91.30
46720;DHT22;32452;51.382;-0.002;2023-02-02T13:30:30;12.20;91.50
46720;DHT22;32452;51.382;-0.002;2023-02-02T13:33:28;12.20;91.80
46720;DHT22;32452;51.382;-0.002;2023-02-02T13:36:22;12.10;92.00
46720;DHT22;32452;51.382;-0.002;2023-02-02T13:39:21;12.10;92.50
46720;DHT22;32452;51.382;-0.002;2023-02-02T13:42:32;12.00;92.90
46720;DHT22;32452;51.382;-0.002;2023-02-02T13:58:41;11.90;95.10
46720;DHT22;32452;51.382;-0.002;2023-02-02T14:01:29;11.80;95.40
46720;DHT22;32452;51.382;-0.002;2023-02-02T14:04:21;11.80;95.70
46720;DHT22;32452;51.382;-0.002;2023-02-02T14:07:08;11.80;95.90
46720;DHT22;32452;51.382;-0.002;2023-02-02T14:09:55;11.80;96.10
46720;DHT22;32452;51.382;-0.002;2023-02-02T14:12:41;11.80;96.30
46720;DHT22;32452;51.382;-0.002;2023-02-02T14:15:42;11.80;96.40
46720;DHT22;32452;51.382;-0.002;2023-02-02T14:29:57;11.80;96.80
46720;DHT22;32452;51.382;-0.002;2023-02-02T14:32:43;11.70;96.90
46720;DHT22;32452;51.382;-0.002;2023-02-02T14:42:12;11.70;97.10
46720;DHT22;32452;51.382;-0.002;2023-02-02T14:45:45;11.80;97.10
46720;DHT22;32452;51.382;-0.002;2023-02-02T14:48:33;11.80;97.10
46720;DHT22;32452;51.382;-0.002;2023-02-02T14:51:22;11.80;97.10
46720;DHT22;32452;51.382;-0.002;2023-02-02T14:54:27;11.80;96.90
46720;DHT22;32452;51.382;-0.002;2023-02-02T14:57:20;11.80;96.80
46720;DHT22;32452;51.382;-0.002;2023-02-02T15:00:20;11.80;96.60
46720;DHT22;32452;51.382;-0.002;2023-02-02T15:15:15;11.70;96.40
46720;DHT22;32452;51.382;-0.002;2023-02-02T15:18:05;11.70;96.40
46720;DHT22;32452;51.382;-0.002;2023-02-02T15:20:59;11.70;96.50
46720;DHT22;32452;51.382;-0.002;2023-02-02T15:23:46;11.70;96.40
46720;DHT22;32452;51.382;-0.002;2023-02-02T15:26:38;11.70;96.40
46720;DHT22;32452;51.382;-0.002;2023-02-02T15:29:46;11.70;96.30
46720;DHT22;32452;51.382;-0.002;2023-02-02T15:32:34;11.70;96.30
46720;DHT22;32452;51.382;-0.002;2023-02-02T15:35:23;11.60;96.30
46720;DHT22;32452;51.382;-0.002;2023-02-02T15:38:15;11.70;96.20
46720;DHT22;32452;51.382;-0.002;2023-02-02T15:41:18;11.70;96.20
46720;DHT22;32452;51.382;-0.002;2023-02-02T15:44:24;11.70;96.20
46720;DHT22;32452;51.382;-0.002;2023-02-02T15:47:27;11.60;96.20
46720;DHT22;32452;51.382;-0.002;2023-02-02T15:50:17;11.60;96.20
46720;DHT22;32452;51.382;-0.002;2023-02-02T15:53:03;11.60;96.20
46720;DHT22;32452;51.382;-0.002;2023-02-02T15:55:50;11.60;96.30
46720;DHT22;32452;51.382;-0.002;2023-02-02T15:58:37;11.50;96.30
46720;DHT22;32452;51.382;-0.002;2023-02-02T16:01:24;11.50;96.30
46720;DHT22;32452;51.382;-0.002;2023-02-02T16:04:24;11.50;96.30
46720;DHT22;32452;51.382;-0.002;2023-02-02T16:07:17;11.50;96.20
46720;DHT22;32452;51.382;-0.002;2023-02-02T16:10:05;11.50;96.20
46720;DHT22;32452;51.382;-0.002;2023-02-02T16:12:52;11.40;96.10
46720;DHT22;32452;51.382;-0.002;2023-02-02T16:15:37;11.50;96.20
46720;DHT22;32452;51.382;-0.002;2023-02-02T16:18:24;11.40;96.20
46720;DHT22;32452;51.382;-0.002;2023-02-02T16:21:16;11.40;96.10
46720;DHT22;32452;51.382;-0.002;2023-02-02T16:24:06;11.40;96.10
46720;DHT22;32452;51.382;-0.002;2023-02-02T16:26:58;11.40;96.10
46720;DHT22;32452;51.382;-0.002;2023-02-02T16:29:44;11.40;96.10
46720;DHT22;32452;51.382;-0.002;2023-02-02T16:32:35;11.40;96.10
46720;DHT22;32452;51.382;-0.002;2023-02-02T16:35:36;11.40;96.10
46720;DHT22;32452;51.382;-0.002;2023-02-02T16:38:32;11.40;96.10
46720;DHT22;32452;51.382;-0.002;2023-02-02T16:41:32;11.40;96.20
46720;DHT22;32452;51.382;-0.002;2023-02-02T16:44:40;11.40;96.30
46720;DHT22;32452;51.382;-0.002;2023-02-02T16:47:31;11.40;96.30
46720;DHT22;32452;51.382;-0.002;2023-02-02T16:50:26;11.30;96.30
46720;DHT22;32452;51.382;-0.002;2023-02-02T16:53:22;11.30;96.30
46720;DHT22;32452;51.382;-0.002;2023-02-02T16:56:19;11.30;96.30
46720;DHT22;32452;51.382;-0.002;2023-02-02T16:59:30;11.30;96.30
46720;DHT22;32452;51.382;-0.002;2023-02-02T17:02:34;11.30;96.30
46720;DHT22;32452;51.382;-0.002;2023-02-02T17:05:30;11.30;96.10
46720;DHT22;32452;51.382;-0.002;2023-02-02T17:08:47;11.20;96.00
46720;DHT22;32452;51.382;-0.002;2023-02-02T17:11:33;11.20;95.70
46720;DHT22;32452;51.382;-0.002;2023-02-02T17:14:23;11.20;95.60
46720;DHT22;32452;51.382;-0.002;2023-02-02T17:17:10;11.20;95.40
46720;DHT22;32452;51.382;-0.002;2023-02-02T17:19:56;11.20;95.40
46720;DHT22;32452;51.382;-0.002;2023-02-02T17:22:44;11.20;95.10
46720;DHT22;32452;51.382;-0.002;2023-02-02T17:25:40;11.20;95.00
46720;DHT22;32452;51.382;-0.002;2023-02-02T17:28:26;11.20;95.00
46720;DHT22;32452;51.382;-0.002;2023-02-02T17:31:13;11.20;95.00
46720;DHT22;32452;51.382;-0.002;2023-02-02T17:33:59;11.20;95.00
46720;DHT22;32452;51.382;-0.002;2023-02-02T17:36:45;11.20;94.90
46720;DHT22;32452;51.382;-0.002;2023-02-02T17:39:30;11.20;94.90
46720;DHT22;32452;51.382;-0.002;2023-02-02T17:42:26;11.10;94.80
46720;DHT22;32452;51.382;-0.002;2023-02-02T17:45:23;11.10;94.70
46720;DHT22;32452;51.382;-0.002;2023-02-02T17:48:13;11.10;94.70
46720;DHT22;32452;51.382;-0.002;2023-02-02T17:50:58;11.10;94.60
46720;DHT22;32452;51.382;-0.002;2023-02-02T17:53:44;11.10;94.50
46720;DHT22;32452;51.382;-0.002;2023-02-02T17:56:30;11.10;94.50
46720;DHT22;32452;51.382;-0.002;2023-02-02T17:59:16;11.10;94.40
46720;DHT22;32452;51.382;-0.002;2023-02-02T18:02:01;11.10;94.30
46720;DHT22;32452;51.382;-0.002;2023-02-02T18:04:47;11.00;94.20
46720;DHT22;32452;51.382;-0.002;2023-02-02T18:07:32;11.00;94.10
46720;DHT22;32452;51.382;-0.002;2023-02-02T18:10:18;11.00;94.10
46720;DHT22;32452;51.382;-0.002;2023-02-02T18:13:13;11.00;94.00
46720;DHT22;32452;51.382;-0.002;2023-02-02T18:15:59;11.00;94.00
46720;DHT22;32452;51.382;-0.002;2023-02-02T18:18:45;11.00;94.00
46720;DHT22;32452;51.382;-0.002;2023-02-02T18:21:31;11.00;94.10
46720;DHT22;32452;51.382;-0.002;2023-02-02T18:24:17;11.00;94.20
46720;DHT22;32452;51.382;-0.002;2023-02-02T18:27:02;11.00;94.30
46720;DHT22;32452;51.382;-0.002;2023-02-02T18:29:48;11.00;94.30
46720;DHT22;32452;51.382;-0.002;2023-02-02T18:32:37;11.00;94.40
46720;DHT22;32452;51.382;-0.002;2023-02-02T18:35:23;11.00;94.50
46720;DHT22;32452;51.382;-0.002;2023-02-02T18:38:10;11.00;94.70
46720;DHT22;32452;51.382;-0.002;2023-02-02T18:40:55;11.00;94.90
46720;DHT22;32452;51.382;-0.002;2023-02-02T18:43:41;11.00;95.00
46720;DHT22;32452;51.382;-0.002;2023-02-02T18:46:26;11.00;95.10
46720;DHT22;32452;51.382;-0.002;2023-02-02T18:49:12;10.90;95.10
46720;DHT22;32452;51.382;-0.002;2023-02-02T18:51:58;11.00;95.10
46720;DHT22;32452;51.382;-0.002;2023-02-02T18:54:46;10.90;95.10
46720;DHT22;32452;51.382;-0.002;2023-02-02T18:57:32;11.00;95.10
46720;DHT22;32452;51.382;-0.002;2023-02-02T19:00:18;11.00;95.00
46720;DHT22;32452;51.382;-0.002;2023-02-02T19:03:04;11.00;94.90
46720;DHT22;32452;51.382;-0.002;2023-02-02T19:05:49;10.90;94.80
46720;DHT22;32452;51.382;-0.002;2023-02-02T19:08:53;10.90;94.70
46720;DHT22;32452;51.382;-0.002;2023-02-02T19:11:39;11.00;94.60
46720;DHT22;32452;51.382;-0.002;2023-02-02T19:14:32;10.90;94.40
46720;DHT22;32452;51.382;-0.002;2023-02-02T19:17:21;10.90;94.30
46720;DHT22;32452;51.382;-0.002;2023-02-02T19:20:21;10.90;94.30
46720;DHT22;32452;51.382;-0.002;2023-02-02T19:23:14;10.90;94.20
46720;DHT22;32452;51.382;-0.002;2023-02-02T19:26:00;10.90;94.10
46720;DHT22;32452;51.382;-0.002;2023-02-02T19:28:46;10.90;94.10
46720;DHT22;32452;51.382;-0.002;2023-02-02T19:31:32;10.90;94.00
46720;DHT22;32452;51.382;-0.002;2023-02-02T19:34:20;10.90;94.00
46720;DHT22;32452;51.382;-0.002;2023-02-02T19:42:58;10.90;94.00
46720;DHT22;32452;51.382;-0.002;2023-02-02T19:45:46;10.90;94.00
46720;DHT22;32452;51.382;-0.002;2023-02-02T19:48:34;10.90;94.00
46720;DHT22;32452;51.382;-0.002;2023-02-02T19:54:33;10.90;94.10
46720;DHT22;32452;51.382;-0.002;2023-02-02T19:57:35;10.80;94.00
46720;DHT22;32452;51.382;-0.002;2023-02-02T20:00:24;10.80;94.00
46720;DHT22;32452;51.382;-0.002;2023-02-02T20:03:15;10.90;94.00
46720;DHT22;32452;51.382;-0.002;2023-02-02T20:06:03;10.80;93.80
46720;DHT22;32452;51.382;-0.002;2023-02-02T20:08:49;10.80;93.80
46720;DHT22;32452;51.382;-0.002;2023-02-02T20:11:37;10.80;93.80